createdAt,value
2018-07-07T00:02:43.232Z,44.80
2018-07-07T00:05:40.436Z,44.13
2018-07-07T00:08:38.365Z,44.33
2018-07-07T00:11:35.673Z,44.11
2018-07-07T00:14:33.600Z,44.56
2018-07-07T00:17:31.642Z,44.06
2018-07-07T00:20:29.579Z,44.94
2018-07-07T00:23:26.895Z,44.11
2018-07-07T00:26:24.200Z,44.39
2018-07-07T00:29:21.538Z,44.23
2018-07-07T00:32:18.778Z,44.15
2018-07-07T00:35:16.027Z,44.32
2018-07-07T00:38:13.724Z,45.29
2018-07-07T00:41:10.893Z,44.52
2018-07-07T00:44:08.607Z,44.50
2018-07-07T00:47:06.674Z,44.95
2018-07-07T00:50:04.115Z,45.19
2018-07-07T00:53:01.351Z,46.42
2018-07-07T00:55:59.313Z,47.08
2018-07-07T00:58:56.658Z,46.69
2018-07-07T01:01:54.759Z,46.12
2018-07-07T01:04:52.947Z,46.27
2018-07-07T01:07:50.087Z,45.90
2018-07-07T01:10:47.543Z,46.41
2018-07-07T01:13:44.715Z,46.54
2018-07-07T01:16:42.833Z,47.31
2018-07-07T01:19:40.814Z,47.26
2018-07-07T01:22:38.830Z,47.47
2018-07-07T01:25:36.808Z,47.78
2018-07-07T01:28:34.868Z,47.73
2018-07-07T01:31:32.658Z,47.75
2018-07-07T01:34:30.674Z,48.30
2018-07-07T01:37:28.773Z,48.73
2018-07-07T01:40:26.142Z,49.31
2018-07-07T01:43:23.971Z,49.34
2018-07-07T01:46:22.907Z,49.62
2018-07-07T01:49:20.827Z,50.08
2018-07-07T01:52:18.786Z,50.15
2018-07-07T01:55:16.961Z,49.81
2018-07-07T01:58:14.799Z,50.77
2018-07-07T02:01:12.925Z,50.90
2018-07-07T02:04:10.059Z,51.31
2018-07-07T02:07:08.079Z,52.36
2018-07-07T02:10:05.328Z,51.39
2018-07-07T02:13:03.262Z,52.66
2018-07-07T02:16:01.450Z,52.38
2018-07-07T02:18:59.448Z,52.07
2018-07-07T02:21:56.586Z,52.15
2018-07-07T02:24:54.630Z,52.78
2018-07-07T02:27:52.546Z,52.49
2018-07-07T02:30:49.696Z,53.38
2018-07-07T02:33:47.621Z,54.48
2018-07-07T02:36:45.532Z,55.02
2018-07-07T02:39:43.220Z,55.53
2018-07-07T02:42:41.285Z,55.34
2018-07-07T02:45:38.286Z,55.12
2018-07-07T02:48:36.404Z,54.96
2018-07-07T02:51:34.451Z,54.95
2018-07-07T02:54:32.446Z,56.07
2018-07-07T02:57:30.509Z,55.77
2018-07-07T03:00:27.654Z,56.26
2018-07-07T03:03:25.875Z,56.20
2018-07-07T03:06:23.964Z,55.76
2018-07-07T03:09:21.186Z,56.99
2018-07-07T03:12:19.408Z,57.55
2018-07-07T03:15:17.572Z,57.66
2018-07-07T03:18:15.542Z,56.46
2018-07-07T03:21:12.850Z,58.01
2018-07-07T03:24:10.068Z,58.56
2018-07-07T03:27:08.187Z,57.89
2018-07-07T03:30:06.434Z,58.93
2018-07-07T03:33:03.653Z,57.95
2018-07-07T03:36:01.791Z,57.82
2018-07-07T03:38:58.885Z,58.28
2018-07-07T03:41:56.145Z,57.16
2018-07-07T03:44:54.315Z,56.44
2018-07-07T03:47:52.228Z,56.70
2018-07-07T03:50:49.878Z,55.82
2018-07-07T03:53:47.094Z,55.37
2018-07-07T03:56:44.190Z,54.26
2018-07-07T03:59:41.429Z,54.12
2018-07-07T04:02:38.639Z,52.82
2018-07-07T04:05:36.480Z,51.24
2018-07-07T04:08:33.594Z,51.18
2018-07-07T04:11:31.460Z,49.52
2018-07-07T04:14:29.432Z,49.57
2018-07-07T04:17:26.627Z,49.85
2018-07-07T04:20:24.651Z,49.68
2018-07-07T04:23:21.772Z,47.96
2018-07-07T04:26:19.787Z,47.42
2018-07-07T04:29:17.247Z,48.80
2018-07-07T04:32:14.933Z,51.12
2018-07-07T04:35:12.186Z,51.84
2018-07-07T04:38:09.283Z,49.72
2018-07-07T04:41:07.422Z,47.39
2018-07-07T04:44:05.570Z,47.35
2018-07-07T04:47:02.839Z,46.75
2018-07-07T04:50:00.038Z,46.26
2018-07-07T04:52:57.970Z,46.47
2018-07-07T04:55:55.674Z,47.19
2018-07-07T04:58:53.718Z,46.44
2018-07-07T05:01:51.883Z,46.51
2018-07-07T05:04:49.871Z,44.94
2018-07-07T05:07:47.855Z,41.80
2018-07-07T05:10:45.251Z,41.43
2018-07-07T05:13:43.121Z,41.10
2018-07-07T05:16:40.612Z,43.68
2018-07-07T05:19:38.631Z,44.95
2018-07-07T05:22:36.852Z,44.02
2018-07-07T05:25:34.785Z,40.52
2018-07-07T05:28:32.056Z,39.63
2018-07-07T05:31:30.219Z,38.83
2018-07-07T05:34:28.274Z,37.81
2018-07-07T05:37:26.310Z,37.01
2018-07-07T05:40:23.426Z,39.06
2018-07-07T05:43:20.490Z,36.93
2018-07-07T05:46:18.581Z,37.13
2018-07-07T05:49:15.862Z,36.88
2018-07-07T05:52:14.104Z,37.39
2018-07-07T05:55:11.641Z,35.26
2018-07-07T05:58:09.898Z,36.13
2018-07-07T06:01:08.110Z,35.65
2018-07-07T06:04:05.382Z,37.09
2018-07-07T06:07:02.654Z,36.23
2018-07-07T06:09:59.754Z,37.49
2018-07-07T06:12:57.987Z,37.37
2018-07-07T06:15:55.294Z,37.45
2018-07-07T06:18:52.653Z,38.11
2018-07-07T06:21:50.118Z,38.30
2018-07-07T06:24:48.286Z,40.44
2018-07-07T06:27:46.102Z,37.44
2018-07-07T06:30:43.156Z,35.98
2018-07-07T06:33:40.645Z,36.89
2018-07-07T06:36:38.030Z,35.75
2018-07-07T06:39:35.704Z,35.98
2018-07-07T06:42:32.812Z,35.13
2018-07-07T06:45:30.699Z,34.37
2018-07-07T06:48:28.881Z,35.61
2018-07-07T06:51:26.212Z,33.40
2018-07-07T06:54:24.164Z,35.00
2018-07-07T06:57:21.346Z,36.70
2018-07-07T07:00:19.276Z,37.18
2018-07-07T07:03:16.326Z,38.35
2018-07-07T07:06:14.358Z,38.26
2018-07-07T07:09:11.641Z,38.22
2018-07-07T07:12:09.892Z,38.51
2018-07-07T07:15:07.795Z,37.14
2018-07-07T07:18:06.157Z,37.41
2018-07-07T07:21:04.398Z,37.88
2018-07-07T07:24:01.987Z,38.11
2018-07-07T07:27:00.123Z,36.79
2018-07-07T07:29:57.431Z,36.20
2018-07-07T07:32:55.664Z,35.95
2018-07-07T07:35:53.054Z,36.16
2018-07-07T07:38:51.003Z,35.86
2018-07-07T07:41:49.132Z,36.38
2018-07-07T07:44:47.173Z,34.87
2018-07-07T07:47:46.105Z,34.06
2018-07-07T07:50:44.146Z,33.36
2018-07-07T07:53:42.211Z,32.06
2018-07-07T07:56:39.383Z,30.79
2018-07-07T07:59:37.481Z,29.91
2018-07-07T08:02:35.305Z,29.96
2018-07-07T08:05:33.258Z,30.24
2018-07-07T08:08:31.263Z,29.07
2018-07-07T08:11:29.391Z,29.38
2018-07-07T08:14:27.426Z,28.49
2018-07-07T08:17:25.302Z,29.77
2018-07-07T08:20:23.614Z,28.94
2018-07-07T08:23:21.671Z,30.34
2018-07-07T08:26:19.827Z,29.74
2018-07-07T08:29:17.943Z,27.89
2018-07-07T08:32:15.651Z,27.59
2018-07-07T08:35:12.772Z,26.39
2018-07-07T08:38:10.678Z,26.43
2018-07-07T08:41:08.204Z,27.28
2018-07-07T08:44:06.094Z,26.85
2018-07-07T08:47:03.522Z,26.76
2018-07-07T08:50:01.449Z,27.62
2018-07-07T08:52:59.478Z,28.61
2018-07-07T08:55:57.007Z,30.88
2018-07-07T08:58:55.035Z,32.66
2018-07-07T09:01:53.166Z,30.93
2018-07-07T09:04:50.915Z,31.33
2018-07-07T09:07:48.192Z,29.43
2018-07-07T09:10:46.278Z,29.48
2018-07-07T09:13:43.470Z,32.78
2018-07-07T09:16:41.115Z,33.71
2018-07-07T09:19:39.097Z,33.06
2018-07-07T09:22:36.943Z,34.93
2018-07-07T09:25:34.982Z,34.86
2018-07-07T09:28:33.003Z,32.54
2018-07-07T09:31:31.082Z,35.33
2018-07-07T09:34:28.210Z,33.13
2018-07-07T09:37:26.361Z,32.12
2018-07-07T09:40:23.533Z,32.47
2018-07-07T09:43:20.922Z,30.85
2018-07-07T09:46:18.252Z,31.79
2018-07-07T09:49:16.248Z,34.26
2018-07-07T09:52:13.619Z,33.32
2018-07-07T09:55:11.803Z,32.53
2018-07-07T09:58:09.750Z,30.78
2018-07-07T10:01:08.111Z,29.11
2018-07-07T10:04:05.590Z,28.08
2018-07-07T10:07:03.602Z,31.67
2018-07-07T10:10:00.929Z,31.52
2018-07-07T10:12:57.919Z,29.92
2018-07-07T10:15:55.854Z,28.82
2018-07-07T10:18:54.051Z,29.16
2018-07-07T10:21:52.223Z,31.13
2018-07-07T10:24:50.216Z,32.77
2018-07-07T10:27:48.014Z,31.08
2018-07-07T10:30:45.016Z,30.48
2018-07-07T10:33:42.782Z,29.56
2018-07-07T10:36:41.670Z,29.02
2018-07-07T10:39:39.987Z,30.03
2018-07-07T10:42:38.131Z,30.96
2018-07-07T10:45:36.196Z,30.47
2018-07-07T10:48:33.587Z,30.16
2018-07-07T10:51:30.909Z,28.87
2018-07-07T10:54:28.908Z,29.29
2018-07-07T10:57:26.980Z,30.60
2018-07-07T11:00:25.063Z,30.26
2018-07-07T11:03:23.107Z,29.33
2018-07-07T11:06:21.173Z,27.11
2018-07-07T11:09:19.304Z,29.41
2018-07-07T11:12:17.487Z,28.53
2018-07-07T11:15:15.644Z,26.99
2018-07-07T11:18:13.865Z,26.90
2018-07-07T11:21:11.195Z,26.55
2018-07-07T11:24:09.163Z,30.25
2018-07-07T11:27:06.626Z,28.90
2018-07-07T11:30:03.995Z,28.98
2018-07-07T11:33:01.477Z,30.24
2018-07-07T11:35:58.782Z,31.17
2018-07-07T11:38:56.551Z,31.81
2018-07-07T11:41:54.054Z,32.26
2018-07-07T11:44:51.327Z,32.23
2018-07-07T11:47:48.996Z,34.01
2018-07-07T11:50:46.194Z,33.94
2018-07-07T11:53:43.705Z,34.25
2018-07-07T11:56:41.536Z,34.12
2018-07-07T11:59:38.976Z,33.52
2018-07-07T12:02:37.128Z,33.85
2018-07-07T12:05:35.000Z,34.31
2018-07-07T12:08:32.213Z,33.85
2018-07-07T12:11:30.254Z,34.18
2018-07-07T12:14:28.279Z,33.84
2018-07-07T12:17:25.615Z,33.89
2018-07-07T12:20:23.130Z,33.93
2018-07-07T12:23:20.217Z,33.72
2018-07-07T12:26:17.662Z,34.06
2018-07-07T12:29:14.838Z,34.12
2018-07-07T12:32:11.983Z,33.05
2018-07-07T12:35:09.922Z,32.73
2018-07-07T12:38:07.336Z,32.89
2018-07-07T12:41:04.634Z,33.15
2018-07-07T12:44:02.129Z,33.65
2018-07-07T12:46:59.514Z,33.37
2018-07-07T12:49:57.117Z,33.92
2018-07-07T12:52:54.411Z,32.81
2018-07-07T12:55:52.743Z,32.53
2018-07-07T12:58:49.958Z,32.73
2018-07-07T13:01:47.167Z,32.73
2018-07-07T13:04:44.619Z,32.27
2018-07-07T13:07:42.255Z,33.20
2018-07-07T13:10:39.467Z,34.13
2018-07-07T13:13:36.599Z,32.75
2018-07-07T13:16:33.742Z,33.11
2018-07-07T13:19:31.105Z,33.64
2018-07-07T13:22:29.394Z,33.99
2018-07-07T13:25:27.535Z,32.88
2018-07-07T13:28:24.839Z,33.05
2018-07-07T13:31:22.366Z,33.14
2018-07-07T13:34:22.946Z,33.54
2018-07-07T13:37:20.477Z,32.26
2018-07-07T13:40:18.683Z,33.73
2018-07-07T13:43:16.440Z,33.87
2018-07-07T13:46:13.436Z,33.36
2018-07-07T13:49:10.974Z,33.52
2018-07-07T13:52:08.631Z,33.16
2018-07-07T13:55:05.908Z,33.05
2018-07-07T13:58:03.436Z,32.15
2018-07-07T14:01:00.644Z,32.65
2018-07-07T14:03:57.758Z,32.73
2018-07-07T14:06:55.084Z,32.34
2018-07-07T14:09:52.367Z,32.34
2018-07-07T14:12:49.611Z,32.43
2018-07-07T14:15:47.122Z,32.40
2018-07-07T14:18:44.515Z,32.54
2018-07-07T14:21:41.857Z,31.75
2018-07-07T14:24:39.155Z,31.59
2018-07-07T14:27:37.294Z,31.91
2018-07-07T14:30:35.437Z,31.81
2018-07-07T14:33:33.387Z,32.23
2018-07-07T14:36:31.484Z,32.01
2018-07-07T14:39:29.743Z,32.04
2018-07-07T14:42:38.282Z,31.29
2018-07-07T14:45:39.505Z,32.57
2018-07-07T14:48:37.332Z,31.31
2018-07-07T14:51:35.698Z,32.60
2018-07-07T14:54:33.647Z,31.47
2018-07-07T14:57:31.760Z,31.19
2018-07-07T15:00:32.371Z,31.53
2018-07-07T15:03:30.041Z,31.28
2018-07-07T15:06:28.182Z,30.92
2018-07-07T15:09:25.363Z,31.48
2018-07-07T15:12:22.550Z,30.59
2018-07-07T15:15:20.509Z,30.72
2018-07-07T15:18:18.764Z,30.83
2018-07-07T15:21:16.081Z,31.93
2018-07-07T15:24:13.699Z,32.24
2018-07-07T15:27:10.947Z,31.21
2018-07-07T15:30:08.139Z,31.13
2018-07-07T15:33:06.180Z,31.11
2018-07-07T15:36:04.201Z,30.22
2018-07-07T15:39:01.996Z,30.19
2018-07-07T15:41:59.929Z,29.94
2018-07-07T15:44:57.258Z,29.72
2018-07-07T15:47:55.067Z,29.89
2018-07-07T15:50:53.141Z,29.63
2018-07-07T15:53:50.134Z,30.02
2018-07-07T15:56:47.351Z,30.42
2018-07-07T15:59:44.599Z,29.65
2018-07-07T16:02:42.632Z,29.95
2018-07-07T16:05:40.723Z,29.89
2018-07-07T16:08:38.638Z,29.77
2018-07-07T16:11:36.782Z,29.76
2018-07-07T16:14:34.825Z,30.58
2018-07-07T16:17:32.171Z,31.44
2018-07-07T16:20:30.007Z,30.88
2018-07-07T16:23:27.185Z,30.59
2018-07-07T16:26:24.472Z,30.73
2018-07-07T16:29:22.585Z,30.49
2018-07-07T16:32:19.823Z,30.08
2018-07-07T16:35:16.838Z,30.95
2018-07-07T16:38:14.280Z,29.77
2018-07-07T16:41:12.419Z,30.80
2018-07-07T16:44:09.788Z,31.13
2018-07-07T16:47:07.311Z,30.91
2018-07-07T16:50:04.905Z,31.24
2018-07-07T16:53:02.441Z,30.57
2018-07-07T16:56:01.351Z,30.23
2018-07-07T16:58:58.516Z,30.27
2018-07-07T17:01:57.813Z,30.47
2018-07-07T17:04:55.768Z,30.88
2018-07-07T17:08:02.293Z,29.58
2018-07-07T17:11:00.348Z,30.90
2018-07-07T17:13:57.615Z,30.95
2018-07-07T17:16:55.738Z,30.59
2018-07-07T17:19:53.950Z,31.93
2018-07-07T17:22:51.917Z,31.13
2018-07-07T17:25:49.281Z,32.78
2018-07-07T17:28:46.528Z,31.92
2018-07-07T17:31:43.803Z,32.77
2018-07-07T17:34:43.308Z,32.64
2018-07-07T17:37:40.527Z,31.77
2018-07-07T17:40:37.998Z,32.74
2018-07-07T17:43:36.550Z,32.35
2018-07-07T17:46:34.921Z,32.43
2018-07-07T17:49:32.322Z,33.04
2018-07-07T17:52:29.931Z,33.26
2018-07-07T17:55:27.499Z,33.90
2018-07-07T17:58:25.479Z,33.41
2018-07-07T18:01:23.551Z,33.77
2018-07-07T18:04:20.718Z,33.82
2018-07-07T18:07:19.110Z,34.47
2018-07-07T18:10:17.091Z,34.81
2018-07-07T18:13:15.284Z,34.76
2018-07-07T18:16:13.431Z,34.98
2018-07-07T18:19:10.601Z,35.45
2018-07-07T18:22:07.908Z,34.53
2018-07-07T18:25:05.821Z,35.01
2018-07-07T18:28:03.110Z,35.28
2018-07-07T18:31:01.162Z,35.45
2018-07-07T18:33:58.814Z,36.02
2018-07-07T18:36:56.344Z,35.47
2018-07-07T18:39:54.471Z,35.89
2018-07-07T18:42:51.586Z,36.28
2018-07-07T18:45:49.733Z,36.81
2018-07-07T18:48:46.882Z,36.42
2018-07-07T18:51:43.991Z,36.77
2018-07-07T18:54:41.360Z,37.30
2018-07-07T18:57:38.696Z,37.40
2018-07-07T19:00:35.877Z,37.74
2018-07-07T19:03:33.471Z,38.64
2018-07-07T19:06:30.918Z,38.70
2018-07-07T19:09:29.304Z,39.39
2018-07-07T19:12:27.478Z,39.34
2018-07-07T19:15:29.592Z,38.91
2018-07-07T19:18:27.615Z,39.87
2018-07-07T19:21:31.720Z,39.32
2018-07-07T19:24:35.143Z,40.16
2018-07-07T19:27:32.370Z,39.82
2018-07-07T19:30:30.335Z,40.65
2018-07-07T19:33:34.387Z,40.42
2018-07-07T19:36:37.867Z,41.27
2018-07-07T19:39:35.341Z,40.43
2018-07-07T19:42:33.342Z,40.78
2018-07-07T19:45:31.395Z,40.72
2018-07-07T19:48:28.666Z,41.20
2018-07-07T19:51:25.763Z,41.58
2018-07-07T19:54:23.781Z,41.37
2018-07-07T19:57:21.695Z,41.92
2018-07-07T20:00:19.134Z,41.87
2018-07-07T20:03:17.143Z,41.78
2018-07-07T20:06:15.501Z,42.61
2018-07-07T20:09:12.739Z,42.62
2018-07-07T20:12:11.035Z,42.61
2018-07-07T20:15:09.101Z,42.93
2018-07-07T20:18:15.249Z,42.95
2018-07-07T20:21:33.500Z,43.71
2018-07-07T20:24:36.510Z,43.26
2018-07-07T20:27:39.710Z,43.51
2018-07-07T20:30:37.645Z,43.82
2018-07-07T20:33:36.351Z,44.82
2018-07-07T20:36:34.251Z,44.86
2018-07-07T20:39:32.185Z,44.75
2018-07-07T20:42:30.274Z,44.83
2018-07-07T20:45:28.297Z,45.11
2018-07-07T20:48:26.558Z,45.72
2018-07-07T20:51:24.714Z,45.36
2018-07-07T20:54:22.063Z,45.32
2018-07-07T20:57:20.028Z,45.70
2018-07-07T21:00:17.297Z,46.20
2018-07-07T21:03:14.686Z,46.56
2018-07-07T21:06:12.077Z,47.08
2018-07-07T21:09:10.131Z,47.08
2018-07-07T21:12:07.408Z,46.67
2018-07-07T21:15:04.611Z,46.91
2018-07-07T21:18:01.799Z,47.44
2018-07-07T21:20:59.427Z,48.44
2018-07-07T21:23:57.386Z,48.04
2018-07-07T21:26:55.163Z,48.65
2018-07-07T21:29:52.262Z,48.75
2018-07-07T21:32:49.880Z,48.57
2018-07-07T21:35:47.054Z,49.24
2018-07-07T21:38:44.187Z,49.16
2018-07-07T21:41:41.561Z,49.54
2018-07-07T21:44:39.478Z,49.69
2018-07-07T21:47:36.767Z,50.05
2018-07-07T21:50:34.966Z,49.85
2018-07-07T21:53:33.151Z,50.35
2018-07-07T21:56:30.379Z,50.46
2018-07-07T21:59:27.572Z,50.96
2018-07-07T22:02:30.962Z,51.49
2018-07-07T22:05:35.187Z,51.26
2018-07-07T22:08:32.453Z,52.15
2018-07-07T22:11:29.772Z,52.09
2018-07-07T22:14:26.971Z,52.16
2018-07-07T22:17:24.831Z,52.61
2018-07-07T22:20:22.310Z,52.13
2018-07-07T22:23:19.684Z,53.33
2018-07-07T22:26:16.874Z,52.81
2018-07-07T22:29:14.711Z,53.31
2018-07-07T22:32:14.302Z,53.25
2018-07-07T22:35:17.990Z,53.78
2018-07-07T22:38:21.355Z,53.76
2018-07-07T22:41:19.352Z,54.52
2018-07-07T22:44:17.628Z,53.81
2018-07-07T22:47:15.524Z,54.15
2018-07-07T22:50:13.282Z,54.32
2018-07-07T22:53:11.182Z,54.82
2018-07-07T22:56:09.351Z,54.87
2018-07-07T22:59:07.467Z,54.64
2018-07-07T23:02:05.523Z,55.40
2018-07-07T23:05:03.652Z,55.52
2018-07-07T23:08:01.721Z,55.25
2018-07-07T23:10:59.876Z,55.50
2018-07-07T23:13:57.624Z,56.16
2018-07-07T23:16:55.438Z,56.42
2018-07-07T23:19:53.418Z,56.25
2018-07-07T23:23:02.747Z,57.07
2018-07-07T23:25:59.915Z,56.79
2018-07-07T23:28:57.138Z,57.06
2018-07-07T23:31:54.545Z,56.57
2018-07-07T23:34:52.808Z,57.08
2018-07-07T23:37:50.013Z,57.61
2018-07-07T23:40:48.090Z,57.64
2018-07-07T23:43:45.278Z,57.09
2018-07-07T23:46:43.087Z,57.67
2018-07-07T23:49:40.315Z,58.21
2018-07-07T23:52:38.215Z,58.06
2018-07-07T23:55:35.255Z,58.33
2018-07-07T23:58:32.545Z,58.28
